Time;durP1;ratioP1;P1;durP2;ratioP2;P2;SDS_P1;SDS_P2;PMS_P1;PMS_P2;Temp;Humidity;BMP_temperature;BMP_pressure;BME280_temperature;BME280_humidity;BME280_pressure;Samples;Min_cycle;Max_cycle;Signal;HPM_P1;HPM_P2
2023/05/12 04:13:04;;;;;;;8.82;6.70;;;;;;;9.74;100.00;100406.19;5554857;32;374390;-86
2023/05/12 04:16:13;;;;;;;10.43;6.87;;;;;;;9.72;100.00;100408.06;5546812;32;34152;-83
2023/05/12 04:19:20;;;;;;;7.62;6.07;;;;;;;9.77;100.00;100418.44;5547236;32;33641;-83
2023/05/12 04:22:30;;;;;;;8.52;6.07;;;;;;;9.82;100.00;100417.28;5552903;32;33254;-83
2023/05/12 04:25:39;;;;;;;6.47;5.53;;;;;;;9.83;100.00;100427.00;5553987;32;33841;-83
2023/05/12 04:28:47;;;;;;;7.25;5.68;;;;;;;9.93;100.00;100422.12;5554063;32;34095;-84
2023/05/12 04:31:55;;;;;;;8.18;5.57;;;;;;;10.00;100.00;100422.69;5547419;32;34067;-85
2023/05/12 04:35:02;;;;;;;8.32;5.60;;;;;;;10.13;100.00;100432.69;5547191;32;33679;-85
2023/05/12 04:38:09;;;;;;;7.75;5.40;;;;;;;10.12;100.00;100429.22;5546883;32;33750;-85
2023/05/12 04:41:18;;;;;;;7.05;5.80;;;;;;;10.06;100.00;100426.84;5546992;32;33794;-85
2023/05/12 04:44:24;;;;;;;7.30;5.50;;;;;;;10.10;100.00;100433.72;5547149;32;33821;-83
2023/05/12 04:47:33;;;;;;;8.15;5.97;;;;;;;10.10;100.00;100423.09;5547211;32;33950;-84
2023/05/12 04:50:43;;;;;;;7.70;5.70;;;;;;;10.18;100.00;100417.44;5546810;32;34849;-83
2023/05/12 04:53:54;;;;;;;9.07;5.97;;;;;;;10.21;100.00;100415.50;5546169;32;33785;-83
2023/05/12 04:57:02;;;;;;;6.25;5.60;;;;;;;10.27;100.00;100426.75;5546614;32;33828;-83
2023/05/12 05:00:11;;;;;;;7.60;5.32;;;;;;;10.26;100.00;100425.88;5545934;32;34913;-83
2023/05/12 05:03:16;;;;;;;9.05;5.70;;;;;;;10.30;100.00;100426.63;5528231;32;33374;-83
2023/05/12 05:06:24;;;;;;;5.57;4.82;;;;;;;10.43;100.00;100424.25;5527271;32;33908;-83
2023/05/12 05:09:31;;;;;;;7.57;5.15;;;;;;;10.41;100.00;100424.28;5527329;32;33606;-82
2023/05/12 05:12:42;;;;;;;6.30;5.10;;;;;;;10.55;100.00;100422.81;5527210;32;34221;-88
2023/05/12 05:15:51;;;;;;;5.10;4.60;;;;;;;10.64;100.00;100431.19;5529017;32;35048;-84
2023/05/12 05:18:59;;;;;;;5.62;5.03;;;;;;;10.50;100.00;100429.19;5537903;32;33927;-83
2023/05/12 05:22:08;;;;;;;6.05;5.45;;;;;;;10.56;100.00;100433.31;5542510;32;34041;-84
2023/05/12 05:25:13;;;;;;;6.15;5.55;;;;;;;10.54;100.00;100429.03;5525940;32;35289;-84
2023/05/12 05:28:17;;;;;;;7.57;5.65;;;;;;;10.56;100.00;100433.31;5524743;32;34028;-84
2023/05/12 05:31:24;;;;;;;9.50;5.55;;;;;;;10.55;100.00;100430.78;5523351;32;33795;-83
2023/05/12 05:34:29;;;;;;;6.62;5.68;;;;;;;10.65;100.00;100432.03;5530095;32;34141;-85
2023/05/12 05:37:35;;;;;;;6.78;5.30;;;;;;;10.70;100.00;100437.13;5525065;32;33635;-83
2023/05/12 05:40:40;;;;;;;5.35;4.85;;;;;;;10.77;100.00;100436.72;5529106;32;33881;-83
2023/05/12 05:43:58;;;;;;;8.10;5.90;;;;;;;10.73;100.00;100440.47;5534492;32;33789;-82
2023/05/12 05:47:04;;;;;;;8.15;5.50;;;;;;;10.73;100.00;100429.87;5519246;32;34931;-82
2023/05/12 05:50:12;;;;;;;5.62;5.12;;;;;;;10.84;100.00;100431.09;5517345;32;34134;-84
2023/05/12 05:53:17;;;;;;;6.03;5.12;;;;;;;10.86;100.00;100445.19;5513891;32;33895;-82
2023/05/12 05:56:23;;;;;;;7.47;5.18;;;;;;;10.85;100.00;100446.97;5515174;32;34800;-82
2023/05/12 05:59:29;;;;;;;6.20;5.60;;;;;;;10.90;100.00;100441.41;5521014;32;34014;-82
2023/05/12 06:02:35;;;;;;;5.90;5.30;;;;;;;10.80;100.00;100443.66;5519583;32;34582;-86
2023/05/12 06:05:44;;;;;;;6.55;5.85;;;;;;;10.92;100.00;100451.03;5514589;32;34610;-85
2023/05/12 06:08:51;;;;;;;6.37;5.60;;;;;;;11.00;100.00;100444.47;5516470;32;33973;-85
2023/05/12 06:11:59;;;;;;;6.90;5.45;;;;;;;10.99;100.00;100462.19;5529737;32;33827;-85
2023/05/12 06:15:07;;;;;;;9.57;5.60;;;;;;;10.97;100.00;100456.09;5528885;32;33855;-85
2023/05/12 06:18:17;;;;;;;6.80;5.50;;;;;;;10.96;100.00;100450.87;5533529;32;34467;-85
2023/05/12 06:21:24;;;;;;;9.25;6.03;;;;;;;11.05;100.00;100453.94;5533699;32;33853;-86
2023/05/12 06:24:34;;;;;;;7.32;5.45;;;;;;;11.09;100.00;100456.41;5533558;32;34681;-86
2023/05/12 06:27:41;;;;;;;7.22;5.75;;;;;;;11.15;100.00;100456.09;5533271;32;34298;-83
2023/05/12 06:30:49;;;;;;;6.93;5.87;;;;;;;11.18;100.00;100454.16;5533592;32;34485;-82
2023/05/12 06:33:57;;;;;;;7.50;5.78;;;;;;;11.22;100.00;100454.84;5533597;32;33612;-85
2023/05/12 06:37:04;;;;;;;10.52;5.68;;;;;;;11.39;100.00;100448.69;5538609;32;34041;-86
2023/05/12 06:40:12;;;;;;;8.45;5.78;;;;;;;11.50;100.00;100457.87;5537343;32;34168;-84
2023/05/12 06:43:18;;;;;;;6.95;5.65;;;;;;;11.54;100.00;100457.66;5517913;32;34032;-85
2023/05/12 06:46:24;;;;;;;6.05;5.43;;;;;;;11.81;100.00;100453.59;5529717;32;33869;-84
2023/05/12 06:49:34;;;;;;;8.40;5.40;;;;;;;11.92;100.00;100456.53;5531893;32;33786;-84
2023/05/12 06:52:42;;;;;;;7.43;5.62;;;;;;;12.03;100.00;100455.09;5530498;32;33906;-85
2023/05/12 06:55:52;;;;;;;6.95;5.40;;;;;;;12.08;100.00;100440.63;5527171;32;33753;-85
2023/05/12 06:59:01;;;;;;;6.03;5.35;;;;;;;12.03;100.00;100441.81;5526027;32;33829;-84
2023/05/12 07:02:07;;;;;;;8.15;5.20;;;;;;;11.92;100.00;100451.22;5519191;32;34045;-84
2023/05/12 07:05:17;;;;;;;7.40;5.28;;;;;;;11.85;100.00;100452.50;5524213;32;34742;-84
2023/05/12 07:08:22;;;;;;;6.78;5.55;;;;;;;11.78;100.00;100456.41;5515530;32;34007;-84
2023/05/12 07:11:25;;;;;;;7.65;6.05;;;;;;;11.73;100.00;100446.87;5516235;32;33969;-82
2023/05/12 07:14:30;;;;;;;7.20;5.70;;;;;;;11.76;100.00;100453.00;5518808;32;34216;-82
2023/05/12 07:17:36;;;;;;;9.57;6.15;;;;;;;11.85;100.00;100453.34;5532082;32;34958;-82
2023/05/12 07:20:45;;;;;;;7.32;6.50;;;;;;;11.92;100.00;100447.72;5527203;32;33508;-83
2023/05/12 07:23:51;;;;;;;7.00;5.50;;;;;;;12.12;100.00;100441.34;5524805;32;34120;-84
2023/05/12 07:26:56;;;;;;;12.07;6.10;;;;;;;12.07;100.00;100451.38;5534280;32;33789;-83
2023/05/12 07:30:09;;;;;;;7.00;5.20;;;;;;;12.21;100.00;100448.78;5514730;32;34662;-84
2023/05/12 07:33:14;;;;;;;;;;;;;;;12.13;100.00;100454.53;5517091;32;33754;-89
2023/05/12 07:36:21;;;;;;;6.85;5.28;;;;;;;12.06;100.00;100450.50;5525529;32;34405;-85
2023/05/12 07:39:31;;;;;;;8.65;5.60;;;;;;;12.08;100.00;100450.41;5532020;32;34535;-85
2023/05/12 07:42:36;;;;;;;5.72;5.07;;;;;;;12.11;100.00;100447.56;5517078;32;33820;-85
2023/05/12 07:45:44;;;;;;;7.32;4.72;;;;;;;12.19;100.00;100461.31;5509618;32;34099;-85
2023/05/12 07:48:49;;;;;;;6.57;5.07;;;;;;;12.26;100.00;100460.03;5512854;32;33765;-85
2023/05/12 07:51:55;;;;;;;6.95;4.80;;;;;;;12.16;100.00;100458.81;5528220;32;34192;-85
2023/05/12 07:54:59;;;;;;;5.62;4.70;;;;;;;12.10;100.00;100457.37;5520234;32;34958;-84
2023/05/12 07:58:06;;;;;;;5.68;4.78;;;;;;;12.10;100.00;100456.50;5513368;32;34121;-85
2023/05/12 08:01:12;;;;;;;6.93;4.82;;;;;;;12.12;100.00;100467.94;5524565;32;35245;-84
2023/05/12 08:04:18;;;;;;;7.55;4.78;;;;;;;12.07;100.00;100462.84;5516136;32;33818;-84
2023/05/12 08:07:25;;;;;;;11.95;5.20;;;;;;;11.93;100.00;100463.56;5533885;32;34082;-84
2023/05/12 08:10:31;;;;;;;8.30;4.82;;;;;;;11.85;100.00;100464.00;5529013;32;34430;-84
2023/05/12 08:13:37;;;;;;;8.00;5.30;;;;;;;11.91;100.00;100470.75;5531101;32;33661;-84
2023/05/12 08:16:44;;;;;;;7.55;5.30;;;;;;;11.88;100.00;100470.94;5523272;32;34502;-84
2023/05/12 08:19:48;;;;;;;7.35;5.12;;;;;;;11.85;100.00;100466.66;5514031;32;33723;-84
2023/05/12 08:22:54;;;;;;;6.30;5.40;;;;;;;11.95;100.00;100472.31;5527814;32;33607;-84
2023/05/12 08:26:01;;;;;;;7.87;5.80;;;;;;;12.18;100.00;100482.69;5514843;32;33537;-83
2023/05/12 08:29:08;;;;;;;7.18;5.90;;;;;;;12.19;100.00;100477.28;5523756;32;33565;-84
2023/05/12 08:32:15;;;;;;;9.20;5.47;;;;;;;12.13;100.00;100477.63;5519469;32;34130;-83
2023/05/12 08:35:25;;;;;;;6.80;5.82;;;;;;;12.21;100.00;100472.72;5518045;32;34147;-84
2023/05/12 08:38:31;;;;;;;9.32;5.45;;;;;;;12.22;100.00;100470.94;5516736;32;34089;-84
2023/05/12 08:41:43;;;;;;;6.07;5.28;;;;;;;12.25;100.00;100476.94;5528351;32;32991;-83
2023/05/12 08:44:49;;;;;;;6.68;5.37;;;;;;;12.37;100.00;100479.88;5532421;32;33967;-85
2023/05/12 08:47:55;;;;;;;8.52;5.75;;;;;;;12.35;100.00;100479.09;5533196;32;34034;-88
2023/05/12 08:51:05;;;;;;;8.63;5.87;;;;;;;12.37;100.00;100479.88;5520609;32;34708;-89
2023/05/12 08:54:13;;;;;;;8.30;5.90;;;;;;;12.33;100.00;100487.13;5516332;32;33916;-84
2023/05/12 08:57:20;;;;;;;7.72;5.45;;;;;;;12.31;100.00;100481.06;5516178;32;34079;-85
2023/05/12 09:00:29;;;;;;;6.72;5.85;;;;;;;12.48;100.00;100487.25;5533670;32;33943;-85
2023/05/12 09:03:36;;;;;;;9.38;5.80;;;;;;;12.37;100.00;100483.38;5532513;32;34149;-84
2023/05/12 09:06:45;;;;;;;6.80;5.70;;;;;;;12.30;100.00;100489.09;5539141;32;33758;-84
2023/05/12 09:09:59;;;;;;;7.10;5.45;;;;;;;12.11;100.00;100498.97;5536591;32;34315;-85
2023/05/12 09:13:22;;;;;;;8.75;6.05;;;;;;;11.97;100.00;100499.69;5535888;32;34926;-85
2023/05/12 09:16:38;;;;;;;;;;;;;;;11.80;100.00;100505.91;5538706;32;33813;-85
2023/05/12 09:19:47;;;;;;;9.32;6.07;;;;;;;11.79;100.00;100503.31;5531791;32;33922;-86
2023/05/12 09:22:57;;;;;;;10.05;6.35;;;;;;;11.82;100.00;100500.50;5520145;32;33676;-85
2023/05/12 09:26:03;;;;;;;8.55;6.07;;;;;;;11.80;100.00;100505.03;5512126;32;33720;-85
2023/05/12 09:29:11;;;;;;;8.95;6.12;;;;;;;11.69;100.00;100506.47;5526367;32;34659;-85
2023/05/12 09:32:31;;;;;;;7.70;6.10;;;;;;;11.66;100.00;100516.41;5522944;32;35638;-86
2023/05/12 09:35:44;;;;;;;8.38;6.40;;;;;;;11.64;100.00;100523.56;5526881;32;33582;-85
2023/05/12 09:39:03;;;;;;;8.40;6.78;;;;;;;11.64;100.00;100532.41;5543796;32;35007;-90
2023/05/12 09:42:12;;;;;;;9.40;6.82;;;;;;;11.47;100.00;100522.66;5530720;32;33970;-86
2023/05/12 09:45:19;;;;;;;8.82;7.00;;;;;;;11.38;100.00;100536.41;5538419;32;34078;-85
2023/05/12 09:48:25;;;;;;;9.65;7.22;;;;;;;11.42;100.00;100530.00;5524990;32;33430;-85
2023/05/12 09:51:31;;;;;;;9.52;7.80;;;;;;;11.22;100.00;100536.31;5533641;32;33878;-86
2023/05/12 09:54:39;;;;;;;8.43;7.15;;;;;;;11.30;100.00;100539.44;5528833;32;33807;-85
2023/05/12 09:57:45;;;;;;;10.52;7.25;;;;;;;11.26;100.00;100544.03;5530921;32;34134;-86
2023/05/12 10:00:53;;;;;;;8.07;7.28;;;;;;;11.22;100.00;100549.59;5546543;32;33582;-85
2023/05/12 10:04:01;;;;;;;7.80;7.00;;;;;;;11.27;100.00;100545.75;5537886;32;34730;-85
2023/05/12 10:07:10;;;;;;;10.25;7.53;;;;;;;11.05;100.00;100545.97;5540720;32;33710;-84
2023/05/12 10:10:20;;;;;;;11.10;7.87;;;;;;;10.94;100.00;100541.19;5543523;32;33841;-85
2023/05/12 10:13:27;;;;;;;11.43;7.37;;;;;;;10.92;100.00;100548.38;5548392;32;34186;-84
2023/05/12 10:16:32;;;;;;;9.25;7.60;;;;;;;10.73;100.00;100549.25;5543308;32;32490;-84
2023/05/12 10:19:35;;;;;;;11.02;8.18;;;;;;;10.60;100.00;100550.75;5526328;32;34190;-84
2023/05/12 10:22:39;;;;;;;9.40;7.57;;;;;;;10.46;100.00;100556.72;5554280;32;33840;-83
2023/05/12 10:25:43;;;;;;;9.93;8.23;;;;;;;10.39;100.00;100553.44;5558451;32;33989;-84
2023/05/12 10:28:48;;;;;;;10.43;8.70;;;;;;;10.31;100.00;100552.97;5551967;32;34246;-84
2023/05/12 10:31:56;;;;;;;10.25;8.45;;;;;;;10.25;100.00;100559.37;5533936;32;33710;-84
2023/05/12 10:35:10;;;;;;;14.02;9.73;;;;;;;10.11;100.00;100560.88;5538029;32;34000;-84
2023/05/12 10:38:21;;;;;;;12.68;8.95;;;;;;;10.14;100.00;100559.00;5541364;32;34256;-84
2023/05/12 10:41:33;;;;;;;12.52;9.65;;;;;;;10.19;100.00;100557.00;5544131;32;34208;-88
2023/05/12 10:44:53;;;;;;;18.25;9.82;;;;;;;10.09;100.00;100560.09;5546008;32;34015;-84
2023/05/12 10:48:05;;;;;;;13.95;9.98;;;;;;;10.23;100.00;100548.87;5535329;32;34200;-83
2023/05/12 10:51:18;;;;;;;12.82;10.55;;;;;;;10.09;100.00;100554.78;5535791;32;34002;-83
2023/05/12 10:54:25;;;;;;;12.45;9.75;;;;;;;10.20;100.00;100548.13;5539297;32;33682;-82
2023/05/12 10:57:30;;;;;;;11.35;9.30;;;;;;;10.20;100.00;100540.16;5540237;32;33938;-83
2023/05/12 11:00:49;;;;;;;11.40;9.43;;;;;;;10.15;100.00;100548.34;5535846;32;33772;-82
2023/05/12 11:04:08;;;;;;;17.33;10.07;;;;;;;10.04;100.00;100540.00;5513479;32;35484;-83
2023/05/12 11:07:13;;;;;;;11.65;9.50;;;;;;;9.98;100.00;100546.47;5522371;32;33984;-83
2023/05/12 11:10:21;;;;;;;12.90;10.57;;;;;;;9.95;100.00;100546.56;5532578;32;36100;-83
2023/05/12 11:13:28;;;;;;;10.77;9.13;;;;;;;10.02;100.00;100545.41;5529560;32;33715;-83
2023/05/12 11:16:31;;;;;;;13.77;10.00;;;;;;;10.09;100.00;100548.63;5530141;32;34133;-83
2023/05/12 11:19:38;;;;;;;12.30;9.68;;;;;;;10.11;100.00;100554.72;5532088;32;33828;-83
2023/05/12 11:22:43;;;;;;;13.85;10.00;;;;;;;10.24;100.00;100555.00;5534372;32;34610;-83
2023/05/12 11:25:50;;;;;;;15.77;10.20;;;;;;;10.35;100.00;100559.81;5527556;32;33869;-83
2023/05/12 11:28:55;;;;;;;15.23;10.68;;;;;;;10.43;100.00;100560.38;5534478;32;33829;-84
2023/05/12 11:31:59;;;;;;;11.60;9.80;;;;;;;10.40;100.00;100551.69;5522884;32;33384;-83
2023/05/12 11:35:13;;;;;;;13.52;9.85;;;;;;;10.46;100.00;100552.25;5530209;32;34343;-82
2023/05/12 11:38:18;;;;;;;11.70;9.82;;;;;;;10.50;100.00;100543.25;5529885;32;33807;-88
2023/05/12 11:41:25;;;;;;;11.80;10.05;;;;;;;10.38;100.00;100549.94;5525708;32;34310;-89
2023/05/12 11:44:29;;;;;;;10.73;9.63;;;;;;;10.44;100.00;100550.62;5524851;32;34184;-84
2023/05/12 11:47:32;;;;;;;11.52;9.68;;;;;;;10.50;100.00;100548.53;5530689;32;34563;-84
2023/05/12 11:50:38;;;;;;;14.73;9.90;;;;;;;10.59;100.00;100541.97;5525522;32;33761;-83
2023/05/12 11:53:42;;;;;;;10.63;9.23;;;;;;;10.68;100.00;100545.97;5519777;32;34193;-84
2023/05/12 11:56:48;;;;;;;11.18;9.52;;;;;;;10.71;100.00;100547.62;5526739;32;34982;-84
2023/05/12 12:00:00;;;;;;;11.35;9.02;;;;;;;10.64;100.00;100553.22;5528173;32;34486;-83
2023/05/12 12:03:09;;;;;;;11.77;8.85;;;;;;;10.62;100.00;100551.56;5519883;32;34936;-83
2023/05/12 12:06:15;;;;;;;12.35;9.30;;;;;;;10.69;100.00;100552.13;5541882;32;33644;-84
2023/05/12 12:09:30;;;;;;;11.63;9.48;;;;;;;10.83;100.00;100548.81;5541903;32;33989;-84
2023/05/12 12:12:33;;;;;;;11.82;9.20;;;;;;;10.84;100.00;100551.41;5528612;32;33899;-84
2023/05/12 12:15:36;;;;;;;10.05;8.90;;;;;;;10.93;100.00;100552.75;5532016;32;34020;-84
2023/05/12 12:18:42;;;;;;;9.98;8.90;;;;;;;10.90;100.00;100558.19;5535133;32;34321;-84
2023/05/12 12:21:47;;;;;;;12.23;9.00;;;;;;;10.91;100.00;100558.13;5529398;32;34070;-84
2023/05/12 12:24:51;;;;;;;10.32;9.10;;;;;;;10.86;100.00;100557.47;5523355;32;34591;-84
2023/05/12 12:27:56;;;;;;;11.12;9.57;;;;;;;10.81;100.00;100563.97;5531031;32;33933;-83
2023/05/12 12:31:00;;;;;;;11.80;9.32;;;;;;;10.69;100.00;100563.59;5532512;32;34598;-85
2023/05/12 12:34:04;;;;;;;10.57;9.10;;;;;;;10.85;100.00;100561.06;5533343;32;34178;-84
2023/05/12 12:37:10;;;;;;;9.07;7.62;;;;;;;10.83;100.00;100567.38;5533354;32;34872;-82
2023/05/12 12:40:14;;;;;;;9.60;8.57;;;;;;;10.81;100.00;100563.97;5535038;32;34623;-82
2023/05/12 12:43:19;;;;;;;9.88;7.70;;;;;;;10.74;100.00;100566.91;5542651;32;34676;-82
2023/05/12 12:46:23;;;;;;;14.93;8.50;;;;;;;10.75;100.00;100565.09;5529903;32;33744;-81
2023/05/12 12:49:30;;;;;;;12.10;10.15;;;;;;;10.73;100.00;100565.19;5526185;32;34100;-82
2023/05/12 12:52:36;;;;;;;13.18;10.90;;;;;;;10.66;100.00;100566.37;5520374;32;34050;-83
2023/05/12 12:55:40;;;;;;;15.13;11.55;;;;;;;10.64;100.00;100562.94;5516398;32;33714;-83
2023/05/12 12:58:46;;;;;;;12.68;10.13;;;;;;;10.70;100.00;100565.31;5514721;32;33896;-83
2023/05/12 13:01:50;;;;;;;11.50;9.95;;;;;;;10.71;100.00;100559.06;5519946;32;33932;-83
2023/05/12 13:04:52;;;;;;;10.93;8.90;;;;;;;10.73;100.00;100559.00;5544658;32;33836;-85
2023/05/12 13:07:58;;;;;;;9.70;8.38;;;;;;;10.71;100.00;100563.53;5544739;32;34153;-87
2023/05/12 13:11:02;;;;;;;12.50;10.35;;;;;;;10.73;100.00;100559.00;5545185;32;33791;-87
2023/05/12 13:14:13;;;;;;;15.63;10.43;;;;;;;10.72;100.00;100558.13;5552515;32;33911;-83
2023/05/12 13:17:20;;;;;;;9.02;7.45;;;;;;;10.60;100.00;100556.06;5538448;32;34255;-83
2023/05/12 13:20:27;;;;;;;8.23;6.47;;;;;;;10.67;100.00;100552.22;5544832;32;34493;-83
2023/05/12 13:23:33;;;;;;;11.45;6.35;;;;;;;10.64;100.00;100555.00;5540482;32;34383;-83
2023/05/12 13:26:40;;;;;;;8.18;6.47;;;;;;;10.64;100.00;100545.25;5548484;32;33719;-83
2023/05/12 13:29:46;;;;;;;7.50;6.43;;;;;;;10.65;100.00;100557.59;5540498;32;34594;-82
2023/05/12 13:32:50;;;;;;;8.48;6.68;;;;;;;10.69;100.00;100549.47;5523148;32;33821;-82
2023/05/12 13:35:56;;;;;;;8.32;6.35;;;;;;;10.76;100.00;100554.41;5537901;32;33921;-82
2023/05/12 13:39:05;;;;;;;8.88;6.18;;;;;;;10.74;100.00;100550.09;5538661;32;33953;-83
2023/05/12 13:42:12;;;;;;;7.72;6.87;;;;;;;10.75;100.00;100554.47;5529485;32;34517;-83
2023/05/12 13:45:22;;;;;;;9.80;6.53;;;;;;;10.79;100.00;100566.66;5531728;32;33800;-83
2023/05/12 13:48:28;;;;;;;7.40;6.22;;;;;;;10.77;100.00;100560.59;5531353;32;33876;-83
2023/05/12 13:51:34;;;;;;;7.18;6.12;;;;;;;10.77;100.00;100565.91;5533852;32;33719;-82
2023/05/12 13:54:38;;;;;;;7.57;6.62;;;;;;;10.74;100.00;100558.94;5542055;32;33387;-83
2023/05/12 13:57:47;;;;;;;7.22;6.47;;;;;;;10.70;100.00;100562.66;5533342;32;34121;-83
2023/05/12 14:00:55;;;;;;;10.18;6.97;;;;;;;10.63;100.00;100559.47;5546474;32;34734;-82
2023/05/12 14:04:01;;;;;;;8.25;6.82;;;;;;;10.68;100.00;100561.00;5563153;32;33977;-83
2023/05/12 14:07:06;;;;;;;9.38;7.15;;;;;;;10.58;100.00;100561.47;5552304;32;35012;-83
2023/05/12 14:10:12;;;;;;;10.07;7.20;;;;;;;10.56;100.00;100562.47;5535624;32;33857;-83
2023/05/12 14:13:18;;;;;;;8.55;7.05;;;;;;;10.55;100.00;100564.25;5538368;32;34043;-83
2023/05/12 14:16:27;;;;;;;11.40;7.40;;;;;;;10.41;100.00;100564.84;5522581;32;34089;-83
2023/05/12 14:19:34;;;;;;;8.30;6.78;;;;;;;10.40;100.00;100572.87;5520452;32;33963;-83
2023/05/12 14:22:42;;;;;;;10.02;7.80;;;;;;;10.39;100.00;100569.37;5521792;32;33868;-87
2023/05/12 14:25:46;;;;;;;14.90;11.50;;;;;;;10.27;100.00;100564.62;5524640;32;33418;-87
2023/05/12 14:28:51;;;;;;;11.15;9.77;;;;;;;10.24;100.00;100574.44;5529081;32;34510;-85
2023/05/12 14:31:54;;;;;;;15.77;8.73;;;;;;;10.26;100.00;100577.00;5536132;32;33641;-83
2023/05/12 14:35:00;;;;;;;10.02;8.32;;;;;;;10.30;100.00;100575.94;5528699;32;33786;-83
2023/05/12 14:38:07;;;;;;;9.27;8.38;;;;;;;10.20;100.00;100575.50;5522974;32;33758;-83
2023/05/12 14:41:17;;;;;;;9.63;8.50;;;;;;;10.23;100.00;100582.47;5537016;32;34002;-83
2023/05/12 14:44:25;;;;;;;13.13;9.27;;;;;;;10.20;100.00;100585.22;5546475;32;33743;-83
2023/05/12 14:47:33;;;;;;;11.95;9.13;;;;;;;10.12;100.00;100596.22;5551108;32;34279;-83
2023/05/12 14:50:38;;;;;;;9.93;8.52;;;;;;;9.99;100.00;100590.56;5540630;32;34122;-83
2023/05/12 14:53:45;;;;;;;12.48;8.63;;;;;;;9.95;100.00;100597.81;5548513;32;34869;-83
2023/05/12 14:56:51;;;;;;;11.23;8.07;;;;;;;9.95;100.00;100597.81;5551292;32;33897;-83
2023/05/12 14:59:57;;;;;;;8.65;7.47;;;;;;;9.94;100.00;100601.38;5536407;32;33712;-83
2023/05/12 15:03:04;;;;;;;9.57;6.70;;;;;;;9.94;100.00;100597.84;5532342;32;34764;-83
2023/05/12 15:06:10;;;;;;;8.77;6.62;;;;;;;10.06;100.00;100607.09;5536516;32;33722;-82
2023/05/12 15:09:14;;;;;;;7.15;6.30;;;;;;;10.00;100.00;100607.34;5531332;32;33599;-83
2023/05/12 15:12:20;;;;;;;6.57;5.82;;;;;;;9.96;100.00;100606.63;5531726;32;33964;-83
2023/05/12 15:15:27;;;;;;;7.72;6.62;;;;;;;9.99;100.00;100601.19;5533073;32;33850;-83
2023/05/12 15:18:33;;;;;;;12.10;6.65;;;;;;;10.01;100.00;100606.41;5542143;32;34223;-83
2023/05/12 15:21:38;;;;;;;7.03;6.32;;;;;;;10.02;100.00;100609.00;5534014;32;34382;-83
2023/05/12 15:24:45;;;;;;;7.70;6.32;;;;;;;9.90;100.00;100615.69;5544671;32;34604;-83
2023/05/12 15:27:53;;;;;;;8.45;6.15;;;;;;;9.97;100.00;100613.63;5551661;32;33646;-83
2023/05/12 15:31:02;;;;;;;7.25;6.15;;;;;;;9.96;100.00;100611.91;5551364;32;35145;-83
2023/05/12 15:34:11;;;;;;;7.57;6.85;;;;;;;9.89;100.00;100613.09;5551865;32;33913;-83
2023/05/12 15:37:20;;;;;;;7.50;6.47;;;;;;;9.91;100.00;100609.44;5551983;32;34045;-83
2023/05/12 15:40:29;;;;;;;8.93;6.85;;;;;;;9.88;100.00;100612.25;5551909;32;33889;-87
2023/05/12 15:43:37;;;;;;;7.70;6.72;;;;;;;9.82;100.00;100607.22;5552582;32;33842;-84
